createdAt,value
2022-08-05T00:02:11.462Z,26.74
2022-08-05T00:04:40.309Z,26.74
2022-08-05T00:07:26.936Z,26.54
2022-08-05T00:09:54.625Z,26.61
2022-08-05T00:12:29.836Z,26.27
2022-08-05T00:14:56.549Z,26.52
2022-08-05T00:17:23.256Z,26.47
2022-08-05T00:20:02.514Z,26.25
2022-08-05T00:22:31.084Z,25.77
2022-08-05T00:25:01.245Z,26.27
2022-08-05T00:27:36.162Z,26.36
2022-08-05T00:30:05.357Z,26.55
2022-08-05T00:32:38.269Z,25.95
2022-08-05T00:35:08.097Z,26.20
2022-08-05T00:37:53.206Z,26.19
2022-08-05T00:40:27.267Z,26.22
2022-08-05T00:42:58.228Z,25.98
2022-08-05T00:45:38.412Z,25.47
2022-08-05T00:48:27.418Z,25.46
2022-08-05T00:50:59.795Z,26.00
2022-08-05T00:54:01.110Z,26.12
2022-08-05T00:56:23.113Z,24.48
2022-08-05T00:58:50.389Z,25.02
2022-08-05T01:02:17.019Z,25.23
2022-08-05T01:04:43.686Z,25.35
2022-08-05T01:08:41.698Z,25.17
2022-08-05T01:10:57.924Z,24.52
2022-08-05T01:13:58.551Z,25.33
2022-08-05T01:17:09.390Z,25.40
2022-08-05T01:20:01.964Z,24.31
2022-08-05T01:23:47.144Z,24.96
2022-08-05T01:26:56.970Z,25.23
2022-08-05T01:29:39.623Z,23.97
2022-08-05T01:32:12.712Z,25.06
2022-08-05T01:35:02.651Z,25.33
2022-08-05T01:37:44.338Z,24.97
2022-08-05T01:40:17.815Z,25.36
2022-08-05T01:42:51.307Z,24.98
2022-08-05T01:45:34.961Z,24.71
2022-08-05T01:48:12.923Z,22.56
2022-08-05T01:50:41.731Z,24.68
2022-08-05T01:53:54.879Z,22.70
2022-08-05T01:58:09.772Z,22.80
2022-08-05T01:59:07.568Z,24.17
2022-08-05T02:01:39.982Z,25.21
2022-08-05T02:04:10.377Z,24.28
2022-08-05T02:06:39.876Z,24.83
2022-08-05T02:09:08.292Z,24.81
2022-08-05T02:11:52.609Z,23.97
2022-08-05T02:14:55.437Z,24.95
2022-08-05T02:21:56.524Z,24.68
2022-08-05T02:28:02.388Z,25.18
2022-08-05T02:30:57.130Z,25.10
2022-08-05T02:33:38.280Z,25.27
2022-08-05T02:36:09.812Z,25.36
2022-08-05T02:41:43.019Z,25.24
2022-08-05T02:44:19.789Z,25.13
2022-08-05T02:47:00.912Z,25.01
2022-08-05T02:49:37.143Z,25.17
2022-08-05T02:52:29.740Z,25.30
2022-08-05T02:54:58.974Z,25.47
2022-08-05T02:58:09.941Z,25.34
2022-08-05T03:00:17.965Z,25.69
2022-08-05T03:02:47.960Z,25.72
2022-08-05T03:05:21.852Z,25.76
2022-08-05T03:08:08.945Z,25.74
2022-08-05T03:10:36.553Z,25.26
2022-08-05T03:13:16.723Z,25.54
2022-08-05T03:15:54.623Z,25.81
2022-08-05T03:18:24.685Z,25.21
2022-08-05T03:20:57.027Z,25.35
2022-08-05T03:23:26.011Z,25.11
2022-08-05T03:26:04.725Z,25.05
2022-08-05T03:28:42.590Z,24.86
2022-08-05T03:31:09.403Z,25.07
2022-08-05T03:33:52.702Z,24.86
2022-08-05T03:36:30.182Z,25.08
2022-08-05T03:38:59.070Z,24.76
2022-08-05T03:41:33.251Z,24.76
2022-08-05T03:44:11.530Z,24.46
2022-08-05T03:46:53.751Z,23.94
2022-08-05T03:49:21.088Z,23.08
2022-08-05T03:52:36.907Z,24.50
2022-08-05T03:56:00.779Z,24.45
2022-08-05T03:57:46.115Z,24.61
2022-08-05T04:00:18.189Z,24.28
2022-08-05T04:02:57.685Z,24.03
2022-08-05T04:05:40.208Z,24.00
2022-08-05T04:08:29.647Z,23.91
2022-08-05T04:11:02.266Z,23.61
2022-08-05T04:13:50.930Z,24.23
2022-08-05T04:16:24.922Z,24.13
2022-08-05T04:18:57.786Z,24.20
2022-08-05T04:22:09.882Z,24.23
2022-08-05T04:24:19.613Z,23.67
2022-08-05T04:26:50.361Z,23.05
2022-08-05T04:29:24.786Z,24.40
2022-08-05T04:31:53.875Z,24.30
2022-08-05T04:34:32.473Z,24.09
2022-08-05T04:37:03.462Z,23.81
2022-08-05T04:40:19.628Z,24.12
2022-08-05T04:42:52.437Z,24.12
2022-08-05T04:45:22.930Z,24.21
2022-08-05T04:48:28.518Z,22.30
2022-08-05T04:51:03.405Z,24.21
2022-08-05T04:53:38.641Z,23.93
2022-08-05T04:56:33.789Z,23.95
2022-08-05T04:58:58.265Z,23.85
2022-08-05T05:02:04.053Z,23.14
2022-08-05T05:04:13.627Z,23.82
2022-08-05T05:06:44.847Z,23.24
2022-08-05T05:09:18.331Z,23.89
2022-08-05T05:11:52.950Z,23.99
2022-08-05T05:14:31.537Z,23.94
2022-08-05T05:17:02.130Z,23.84
2022-08-05T05:19:56.562Z,23.24
2022-08-05T05:22:26.029Z,22.65
2022-08-05T05:24:56.852Z,23.52
2022-08-05T05:27:56.250Z,23.76
2022-08-05T05:30:29.645Z,23.74
2022-08-05T05:33:00.972Z,24.18
2022-08-05T05:35:37.992Z,24.12
2022-08-05T05:38:09.174Z,23.87
2022-08-05T05:40:49.621Z,24.10
2022-08-05T05:43:27.560Z,22.39
2022-08-05T05:46:13.813Z,23.10
2022-08-05T05:48:44.529Z,23.61
2022-08-05T05:51:14.980Z,24.28
2022-08-05T05:53:46.012Z,24.34
2022-08-05T05:56:26.108Z,23.09
2022-08-05T05:58:58.642Z,24.26
2022-08-05T06:01:37.742Z,24.10
2022-08-05T06:04:05.471Z,24.30
2022-08-05T06:06:34.677Z,23.91
2022-08-05T06:09:03.836Z,23.72
2022-08-05T06:11:30.582Z,24.50
2022-08-05T06:13:57.209Z,24.65
2022-08-05T06:16:28.320Z,24.57
2022-08-05T06:19:01.246Z,24.69
2022-08-05T06:21:36.799Z,24.43
2022-08-05T06:24:11.929Z,24.46
2022-08-05T06:26:51.883Z,24.46
2022-08-05T06:29:24.993Z,24.82
2022-08-05T06:32:21.451Z,24.91
2022-08-05T06:34:56.752Z,24.92
2022-08-05T06:37:55.896Z,24.88
2022-08-05T06:40:21.031Z,24.73
2022-08-05T06:42:51.879Z,24.60
2022-08-05T06:45:43.943Z,24.89
2022-08-05T06:48:44.294Z,24.85
2022-08-05T06:51:09.530Z,24.93
2022-08-05T06:53:39.368Z,24.39
2022-08-05T06:56:07.306Z,25.20
2022-08-05T06:58:52.766Z,25.27
2022-08-05T07:01:21.010Z,24.39
2022-08-05T07:03:47.924Z,25.34
2022-08-05T07:06:15.265Z,25.37
2022-08-05T07:08:47.772Z,24.02
2022-08-05T07:11:19.689Z,25.34
2022-08-05T07:14:07.887Z,25.16
2022-08-05T07:17:58.982Z,25.01
2022-08-05T07:22:30.234Z,24.86
2022-08-05T07:25:23.147Z,23.66
2022-08-05T07:27:58.152Z,25.19
2022-08-05T07:30:33.664Z,23.48
2022-08-05T07:33:09.943Z,25.13
2022-08-05T07:36:01.485Z,24.65
2022-08-05T07:38:34.378Z,24.95
2022-08-05T07:41:35.026Z,25.40
2022-08-05T07:43:56.922Z,25.45
2022-08-05T07:46:28.528Z,25.81
2022-08-05T07:49:02.311Z,25.53
2022-08-05T07:51:37.098Z,25.56
2022-08-05T07:54:09.799Z,25.46
2022-08-05T07:57:13.629Z,25.20
2022-08-05T07:59:38.638Z,24.53
2022-08-05T08:02:15.448Z,24.24
2022-08-05T08:04:45.607Z,22.86
2022-08-05T08:07:13.012Z,25.36
2022-08-05T08:09:39.923Z,25.38
2022-08-05T08:12:27.535Z,23.52
2022-08-05T08:14:54.793Z,25.52
2022-08-05T08:17:22.254Z,24.03
2022-08-05T08:20:44.495Z,25.70
2022-08-05T08:22:37.561Z,23.28
2022-08-05T08:25:15.805Z,24.97
2022-08-05T08:27:44.940Z,25.51
2022-08-05T08:30:29.475Z,25.72
2022-08-05T08:33:02.562Z,25.67
2022-08-05T08:36:07.985Z,25.53
2022-08-05T08:38:38.947Z,25.39
2022-08-05T08:41:08.557Z,25.67
2022-08-05T08:45:24.776Z,25.72
2022-08-05T08:46:27.488Z,25.18
2022-08-05T08:49:06.357Z,25.82
2022-08-05T08:52:05.608Z,25.70
2022-08-05T08:54:31.699Z,25.74
2022-08-05T08:57:00.418Z,25.80
2022-08-05T08:59:33.537Z,25.14
2022-08-05T09:02:04.445Z,25.83
2022-08-05T09:04:58.467Z,24.87
2022-08-05T09:07:28.747Z,25.26
2022-08-05T09:09:56.601Z,24.65
2022-08-05T09:12:27.364Z,25.68
2022-08-05T09:14:59.426Z,25.89
2022-08-05T09:17:42.358Z,25.97
2022-08-05T09:20:36.644Z,24.51
2022-08-05T09:23:07.984Z,25.31
2022-08-05T09:25:59.869Z,26.07
2022-08-05T09:28:31.631Z,24.13
2022-08-05T09:31:22.408Z,26.13
2022-08-05T09:34:11.659Z,26.34
2022-08-05T09:36:59.811Z,24.08
2022-08-05T09:39:45.263Z,26.46
2022-08-05T09:42:40.126Z,26.10
2022-08-05T09:46:04.697Z,26.03
2022-08-05T09:48:00.271Z,26.21
2022-08-05T09:51:14.971Z,26.09
2022-08-05T09:53:53.853Z,25.95
2022-08-05T09:56:34.120Z,25.84
2022-08-05T09:59:09.674Z,25.94
2022-08-05T10:01:46.496Z,23.92
2022-08-05T10:04:16.215Z,25.89
2022-08-05T10:07:01.672Z,25.76
2022-08-05T10:10:04.398Z,24.45
2022-08-05T10:12:52.730Z,25.22
2022-08-05T10:15:34.268Z,25.87
2022-08-05T10:18:13.408Z,25.90
2022-08-05T10:20:47.687Z,26.01
2022-08-05T10:23:55.108Z,25.23
2022-08-05T10:26:18.143Z,25.63
2022-08-05T10:28:47.731Z,25.60
2022-08-05T10:32:49.466Z,25.34
2022-08-05T10:34:07.092Z,25.54
2022-08-05T10:36:40.474Z,25.65
2022-08-05T10:39:15.183Z,25.73
2022-08-05T10:42:18.552Z,25.75
2022-08-05T10:44:46.756Z,25.82
2022-08-05T10:47:27.113Z,25.75
2022-08-05T10:50:31.606Z,25.37
2022-08-05T10:53:02.275Z,25.93
2022-08-05T10:56:03.618Z,25.18
2022-08-05T10:58:21.783Z,25.71
2022-08-05T11:01:07.401Z,25.06
2022-08-05T11:04:15.698Z,25.30
2022-08-05T11:07:02.216Z,22.66
2022-08-05T11:09:45.614Z,25.46
2022-08-05T11:12:45.469Z,25.19
2022-08-05T11:16:01.171Z,25.26
2022-08-05T11:18:30.047Z,25.20
2022-08-05T11:20:59.109Z,24.72
2022-08-05T11:24:03.812Z,23.73
2022-08-05T11:26:37.088Z,24.84
2022-08-05T11:29:13.466Z,24.75
2022-08-05T11:31:58.907Z,25.04
2022-08-05T11:34:51.826Z,25.04
2022-08-05T11:38:36.562Z,24.87
2022-08-05T11:41:03.508Z,24.52
2022-08-05T11:44:05.962Z,25.05
2022-08-05T11:47:09.634Z,25.18
2022-08-05T11:49:28.431Z,25.16
2022-08-05T11:51:55.309Z,25.23
2022-08-05T11:54:33.587Z,24.87
2022-08-05T11:57:25.169Z,23.87
2022-08-05T12:00:02.310Z,25.07
2022-08-05T12:02:36.113Z,25.24
2022-08-05T12:05:07.010Z,25.26
2022-08-05T12:08:03.361Z,25.23
2022-08-05T12:10:45.598Z,24.25
2022-08-05T12:13:17.046Z,23.87
2022-08-05T12:15:50.241Z,25.03
2022-08-05T12:18:33.291Z,23.46
2022-08-05T12:21:19.687Z,23.76
2022-08-05T12:24:04.319Z,25.00
2022-08-05T12:26:44.117Z,24.78
2022-08-05T12:29:17.993Z,23.69
2022-08-05T12:32:02.044Z,24.60
2022-08-05T12:34:33.749Z,25.01
2022-08-05T12:37:29.822Z,24.58
2022-08-05T12:40:10.655Z,23.57
2022-08-05T12:42:37.520Z,25.22
2022-08-05T12:45:09.711Z,25.40
2022-08-05T12:47:38.331Z,25.26
2022-08-05T12:50:19.940Z,25.49
2022-08-05T12:52:59.756Z,24.63
2022-08-05T12:55:33.016Z,24.99
2022-08-05T12:58:38.552Z,25.33
2022-08-05T13:02:01.735Z,25.40
2022-08-05T13:03:42.183Z,24.28
2022-08-05T13:06:19.866Z,25.37
2022-08-05T13:08:51.987Z,25.61
2022-08-05T13:12:01.479Z,24.79
2022-08-05T13:14:35.964Z,25.65
2022-08-05T13:17:31.602Z,25.20
2022-08-05T13:20:23.452Z,25.02
2022-08-05T13:22:53.367Z,25.87
2022-08-05T13:25:51.981Z,25.34
2022-08-05T13:28:11.714Z,26.37
2022-08-05T13:30:40.831Z,25.72
2022-08-05T13:33:07.603Z,26.02
2022-08-05T13:35:47.286Z,25.31
2022-08-05T13:38:28.182Z,24.67
2022-08-05T13:40:58.530Z,25.62
2022-08-05T13:43:43.341Z,25.89
2022-08-05T13:46:12.710Z,26.03
2022-08-05T13:48:58.742Z,26.15
2022-08-05T13:51:40.307Z,26.43
2022-08-05T13:54:12.560Z,25.79
2022-08-05T13:56:45.576Z,26.41
2022-08-05T13:59:24.167Z,25.00
2022-08-05T14:02:00.382Z,26.40
2022-08-05T14:04:50.021Z,25.96
2022-08-05T14:07:25.689Z,25.81
2022-08-05T14:10:18.955Z,26.12
2022-08-05T14:12:55.158Z,26.21
2022-08-05T14:16:04.464Z,26.29
2022-08-05T14:18:15.283Z,26.05
2022-08-05T14:20:47.930Z,26.09
2022-08-05T14:23:23.470Z,25.89
2022-08-05T14:25:53.973Z,25.07
2022-08-05T14:28:26.880Z,24.05
2022-08-05T14:30:54.440Z,26.37
2022-08-05T14:33:22.683Z,24.80
2022-08-05T14:35:51.564Z,25.11
2022-08-05T14:38:32.558Z,25.78
2022-08-05T14:41:07.941Z,25.51
2022-08-05T14:43:59.324Z,26.18
2022-08-05T14:46:23.462Z,26.29
2022-08-05T14:48:56.867Z,26.82
2022-08-05T14:51:24.863Z,26.93
2022-08-05T14:54:27.746Z,26.79
2022-08-05T14:56:47.030Z,26.95
2022-08-05T14:59:35.600Z,27.16
2022-08-05T15:02:03.952Z,27.07
2022-08-05T15:04:45.033Z,26.98
2022-08-05T15:08:08.865Z,27.04
2022-08-05T15:10:01.483Z,27.20
2022-08-05T15:12:51.597Z,27.08
2022-08-05T15:15:55.661Z,27.17
2022-08-05T15:18:07.832Z,27.43
2022-08-05T15:20:37.448Z,26.69
2022-08-05T15:23:09.517Z,26.91
2022-08-05T15:25:52.968Z,27.00
2022-08-05T15:28:26.958Z,27.33
2022-08-05T15:30:55.183Z,27.05
2022-08-05T15:34:18.535Z,27.24
2022-08-05T15:36:17.819Z,27.26
2022-08-05T15:40:58.793Z,25.89
2022-08-05T15:41:56.299Z,26.59
2022-08-05T15:44:27.551Z,26.85
2022-08-05T15:46:57.932Z,26.55
2022-08-05T15:49:53.644Z,27.04
2022-08-05T15:52:29.593Z,27.21
2022-08-05T15:55:08.388Z,26.77
2022-08-05T16:01:29.296Z,25.72
2022-08-05T16:03:59.572Z,26.51
2022-08-05T16:17:13.273Z,21.85
2022-08-05T16:20:04.337Z,25.03
2022-08-05T16:22:38.698Z,23.03
2022-08-05T16:25:11.463Z,23.92
2022-08-05T16:27:59.811Z,25.27
2022-08-05T16:34:16.470Z,21.62
2022-08-05T16:40:06.443Z,22.70
2022-08-05T16:46:04.781Z,24.40
2022-08-05T16:52:06.189Z,24.71
2022-08-05T16:54:36.163Z,22.94
2022-08-05T17:00:50.180Z,23.07
2022-08-05T17:03:21.358Z,23.46
2022-08-05T17:05:54.034Z,20.81
2022-08-05T17:08:52.676Z,22.65
2022-08-05T17:11:25.783Z,25.07
2022-08-05T17:14:00.629Z,25.51
2022-08-05T17:16:38.212Z,24.54
2022-08-05T17:19:10.991Z,22.68
2022-08-05T17:21:59.661Z,24.39
2022-08-05T17:24:35.062Z,24.30
2022-08-05T17:27:09.975Z,22.89
2022-08-05T17:30:00.590Z,24.34
2022-08-05T17:32:35.167Z,21.96
2022-08-05T17:35:05.403Z,23.80
2022-08-05T17:37:41.545Z,20.90
2022-08-05T17:40:18.514Z,23.33
2022-08-05T17:42:53.215Z,22.79
2022-08-05T17:45:25.157Z,21.98
2022-08-05T17:48:39.112Z,24.12
2022-08-05T17:54:42.406Z,24.51
2022-08-05T17:57:50.006Z,22.13
2022-08-05T18:00:31.144Z,24.43
2022-08-05T18:03:02.579Z,22.88
2022-08-05T18:05:35.579Z,21.49
2022-08-05T18:17:01.209Z,24.05
2022-08-05T18:19:54.057Z,22.64
2022-08-05T18:23:15.961Z,24.13
2022-08-05T18:25:57.810Z,21.80
2022-08-05T18:28:37.199Z,22.40
2022-08-05T18:31:33.806Z,23.61
2022-08-05T18:34:13.509Z,22.02
2022-08-05T18:37:33.656Z,23.49
2022-08-05T18:41:53.995Z,23.46
2022-08-05T18:43:48.709Z,21.73
2022-08-05T18:46:59.050Z,21.82
2022-08-05T19:25:21.641Z,22.23
2022-08-05T19:30:48.883Z,18.98
2022-08-05T19:33:35.122Z,22.27
2022-08-05T19:36:06.402Z,21.12
2022-08-05T19:38:39.156Z,22.91
2022-08-05T19:41:34.694Z,21.43
2022-08-05T19:44:20.068Z,22.75
2022-08-05T19:46:53.536Z,22.86
2022-08-05T19:49:26.631Z,20.66
2022-08-05T19:52:09.285Z,21.73
2022-08-05T19:54:47.557Z,21.98
2022-08-05T19:57:20.065Z,21.49
2022-08-05T20:00:10.188Z,23.04
2022-08-05T20:03:00.061Z,22.00
2022-08-05T20:05:43.130Z,21.84
2022-08-05T20:08:37.963Z,19.34
2022-08-05T20:11:40.109Z,22.89
2022-08-05T20:14:12.671Z,21.72
2022-08-05T20:16:44.677Z,20.93
2022-08-05T20:19:16.549Z,19.77
2022-08-05T20:21:48.607Z,22.20
2022-08-05T20:24:27.352Z,22.68
2022-08-05T20:26:57.342Z,22.94
2022-08-05T20:29:27.800Z,22.45
2022-08-05T20:32:04.401Z,21.17
2022-08-05T20:34:33.854Z,22.73
2022-08-05T20:37:18.116Z,22.76
2022-08-05T20:40:21.444Z,21.07
2022-08-05T20:42:54.516Z,19.11
2022-08-05T20:45:55.768Z,22.52
2022-08-05T20:48:32.714Z,22.42
2022-08-05T20:51:08.108Z,20.69
2022-08-05T20:53:40.944Z,21.18
2022-08-05T20:59:46.078Z,22.09
2022-08-05T21:02:39.615Z,20.59
2022-08-05T21:05:24.903Z,20.48
2022-08-05T21:07:56.266Z,18.88
2022-08-05T21:10:49.401Z,21.98
2022-08-05T21:13:47.488Z,22.23
2022-08-05T21:16:16.923Z,21.03
2022-08-05T21:18:47.701Z,20.37
2022-08-05T21:21:17.264Z,20.56
2022-08-05T21:23:47.949Z,22.15
2022-08-05T21:26:21.411Z,19.80
2022-08-05T21:28:56.286Z,22.12
2022-08-05T21:31:41.521Z,19.83
2022-08-05T21:34:11.671Z,21.56
2022-08-05T21:36:43.386Z,18.50
2022-08-05T21:39:26.841Z,22.20
2022-08-05T21:42:01.070Z,21.80
2022-08-05T21:44:34.401Z,19.29
2022-08-05T21:47:05.521Z,21.91
2022-08-05T21:50:00.059Z,21.78
2022-08-05T21:52:40.764Z,22.02
2022-08-05T21:55:42.817Z,20.38
2022-08-05T21:58:10.251Z,21.92
2022-08-05T22:01:00.497Z,19.38
2022-08-05T22:03:49.088Z,21.94
2022-08-05T22:06:22.456Z,20.49
2022-08-05T22:09:01.334Z,21.37
2022-08-05T22:11:53.185Z,20.07
2022-08-05T22:14:35.867Z,21.76
2022-08-05T22:17:30.452Z,21.84
2022-08-05T22:20:14.648Z,21.16
2022-08-05T22:23:16.810Z,20.53
2022-08-05T22:26:09.996Z,20.80
2022-08-05T22:28:39.684Z,20.11
2022-08-05T22:31:11.220Z,21.68
2022-08-05T22:33:57.973Z,20.84
2022-08-05T22:36:30.914Z,21.30
2022-08-05T22:39:21.519Z,21.63
2022-08-05T22:42:10.314Z,20.08
2022-08-05T22:44:53.585Z,21.70
2022-08-05T22:47:28.972Z,20.27
2022-08-05T22:50:19.029Z,19.19
2022-08-05T22:52:53.642Z,21.68
2022-08-05T22:55:24.276Z,20.21
2022-08-05T22:57:53.651Z,21.50
2022-08-05T23:00:24.754Z,21.39
2022-08-05T23:02:56.728Z,21.40
2022-08-05T23:05:31.500Z,21.36
2022-08-05T23:08:06.260Z,21.51
2022-08-05T23:10:33.354Z,21.46
2022-08-05T23:13:03.248Z,21.25
2022-08-05T23:15:36.354Z,20.66
2022-08-05T23:18:11.602Z,21.41
2022-08-05T23:20:44.181Z,20.53
2022-08-05T23:23:10.784Z,21.05
2022-08-05T23:25:51.131Z,21.34
2022-08-05T23:28:26.895Z,20.62
2022-08-05T23:31:16.046Z,21.26
2022-08-05T23:34:03.879Z,17.99
2022-08-05T23:36:45.674Z,19.11
2022-08-05T23:39:17.430Z,21.22
2022-08-05T23:41:56.342Z,21.27
2022-08-05T23:44:27.829Z,18.92
2022-08-05T23:47:02.611Z,21.26
2022-08-05T23:49:45.926Z,21.15
2022-08-05T23:52:30.745Z,21.14
2022-08-05T23:55:08.996Z,19.59
2022-08-05T23:57:38.786Z,20.83
